Time,TemperatureF,DewpointF,PressureIn,WindDirection,WindDirectionDegrees,WindSpeedMPH,WindSpeedGustMPH,Humidity,HourlyPrecipIn,Conditions,Clouds,dailyrainin,SoftwareType,DateUTC
2013-05-19 00:00:00,46.6,35.9,29.88,SE,125,0.9,2.5,66,0.00,,,0.00,WSDL version 420,2013-05-18 14:00:00,
2013-05-19 00:05:00,46.6,36.0,29.88,SSE,165,0.4,2.5,67,0.00,,,0.00,WSDL version 420,2013-05-18 14:05:00,
2013-05-19 00:10:00,46.6,36.2,29.88,SSW,197,0.0,1.6,67,0.00,,,0.00,WSDL version 420,2013-05-18 14:10:00,
2013-05-19 00:15:00,46.6,36.2,29.85,SSW,199,0.6,1.6,67,-99.99,,,-99.99,WSDL version 420,2013-05-18 14:15:00,
2013-05-19 00:20:00,46.8,36.7,29.85,SW,231,0.0,1.6,68,-99.99,,,-99.99,WSDL version 420,2013-05-18 14:20:00,
2013-05-19 00:25:00,46.9,36.9,29.85,WSW,238,0.4,1.6,68,0.00,,,0.00,WSDL version 420,2013-05-18 14:25:00,
2013-05-19 00:30:00,46.9,36.7,29.85,West,259,0.0,1.6,67,0.00,,,0.00,WSDL version 420,2013-05-18 14:30:00,
2013-05-19 00:35:00,47.1,36.7,29.85,West,270,1.2,3.8,67,0.00,,,0.00,WSDL version 420,2013-05-18 14:35:00,
2013-05-19 00:40:00,47.7,37.3,29.85,WSW,251,2.8,4.0,67,-99.99,,,-99.99,WSDL version 420,2013-05-18 14:40:00,
2013-05-19 00:45:00,48.2,37.4,29.83,WSW,254,1.5,4.9,66,0.00,,,0.00,WSDL version 420,2013-05-18 14:45:00,
2013-05-19 00:50:00,48.5,37.4,29.83,WSW,253,2.2,4.9,65,0.00,,,0.00,WSDL version 420,2013-05-18 14:50:00,
2013-05-19 00:55:00,48.6,37.0,29.83,West,270,1.7,3.6,64,0.00,,,0.00,WSDL version 420,2013-05-18 14:55:00,
2013-05-19 01:00:00,48.6,36.9,29.85,SW,236,1.0,3.4,63,0.00,,,0.00,WSDL version 420,2013-05-18 15:00:00,
2013-05-19 01:05:00,48.6,36.6,29.85,WSW,255,1.1,3.4,63,0.00,,,0.00,WSDL version 420,2013-05-18 15:05:00,
2013-05-19 01:10:00,48.6,36.6,29.85,West,267,1.9,3.1,63,0.00,,,0.00,WSDL version 420,2013-05-18 15:10:00,
2013-05-19 01:15:00,48.6,36.6,29.85,WSW,240,1.9,3.1,63,0.00,,,0.00,WSDL version 420,2013-05-18 15:15:00,
2013-05-19 01:20:00,48.6,36.6,29.85,West,278,1.4,3.6,63,0.00,,,0.00,WSDL version 420,2013-05-18 15:20:00,
2013-05-19 01:30:00,48.3,36.3,29.85,SW,225,0.4,3.4,63,0.00,,,0.00,WSDL version 420,2013-05-18 15:30:00,
2013-05-19 01:35:00,48.0,36.3,29.85,WSW,248,0.5,3.1,64,0.00,,,0.00,WSDL version 420,2013-05-18 15:35:00,
2013-05-19 01:40:00,48.0,36.6,29.85,WSW,248,1.7,3.6,65,0.00,,,0.00,WSDL version 420,2013-05-18 15:40:00,
2013-05-19 01:45:00,48.3,37.1,29.85,WNW,283,2.0,4.9,65,0.00,,,0.00,WSDL version 420,2013-05-18 15:45:00,
2013-05-19 01:50:00,48.5,37.4,29.85,West,270,2.3,6.0,65,0.00,,,0.00,WSDL version 420,2013-05-18 15:50:00,
2013-05-19 01:55:00,48.7,37.5,29.85,WSW,254,2.6,6.0,65,0.00,,,0.00,WSDL version 420,2013-05-18 15:55:00,
2013-05-19 02:00:00,48.7,37.5,29.85,West,267,2.5,5.4,65,0.00,,,0.00,WSDL version 420,2013-05-18 16:00:00,
2013-05-19 02:05:00,48.7,37.5,29.85,WSW,255,2.1,5.4,65,0.00,,,0.00,WSDL version 420,2013-05-18 16:05:00,
2013-05-19 02:10:00,48.6,37.3,29.85,WNW,302,0.3,3.6,65,-99.99,,,-99.99,WSDL version 420,2013-05-18 16:10:00,
2013-05-19 02:15:00,48.5,37.3,29.85,WSW,255,1.9,4.9,65,0.00,,,0.00,WSDL version 420,2013-05-18 16:15:00,
2013-05-19 02:20:00,48.6,37.6,29.85,West,278,1.7,4.9,65,0.00,,,0.00,WSDL version 420,2013-05-18 16:20:00,
2013-05-19 02:25:00,48.4,37.2,29.85,WNW,290,1.0,3.8,65,0.00,,,0.00,WSDL version 420,2013-05-18 16:25:00,
2013-05-19 02:30:00,48.4,37.4,29.85,West,267,3.3,6.0,66,0.00,,,0.00,WSDL version 420,2013-05-18 16:30:00,
2013-05-19 02:35:00,48.4,37.6,29.85,WSW,255,1.8,6.0,66,0.00,,,0.00,WSDL version 420,2013-05-18 16:35:00,
2013-05-19 02:40:00,48.5,37.6,29.85,West,273,2.8,4.3,66,-99.99,,,-99.99,WSDL version 420,2013-05-18 16:40:00,
2013-05-19 02:45:00,48.5,37.7,29.85,WSW,251,1.6,4.3,66,0.00,,,0.00,WSDL version 420,2013-05-18 16:45:00,
2013-05-19 02:50:00,48.4,37.6,29.85,WSW,239,2.2,4.3,66,0.00,,,0.00,WSDL version 420,2013-05-18 16:50:00,
2013-05-19 02:55:00,48.4,37.6,29.85,West,265,2.2,5.4,66,0.00,,,0.00,WSDL version 420,2013-05-18 16:55:00,
2013-05-19 03:00:00,48.4,37.8,29.83,West,270,3.7,5.4,67,0.00,,,0.00,WSDL version 420,2013-05-18 17:00:00,
2013-05-19 03:05:00,48.6,38.1,29.83,WSW,245,2.8,5.6,67,-99.99,,,-99.99,WSDL version 420,2013-05-18 17:05:00,
2013-05-19 03:10:00,-999.0,-99.9,29.83,WNW,283,2.2,5.6,-999,0.00,,,0.00,WSDL version 420,2013-05-18 17:10:00,
2013-05-19 03:15:00,-999.0,-99.9,29.83,West,270,0.0,4.0,-999,0.00,,,0.00,WSDL version 420,2013-05-18 17:15:00,
2013-05-19 03:20:00,48.2,37.6,29.85,WSW,251,2.5,4.7,67,0.00,,,0.00,WSDL version 420,2013-05-18 17:20:00,
2013-05-19 03:25:00,48.0,37.6,29.85,WNW,283,0.0,4.7,67,0.00,,,0.00,WSDL version 420,2013-05-18 17:25:00,
2013-05-19 03:30:00,47.8,37.4,29.85,WSW,254,2.4,3.1,67,0.00,,,0.00,WSDL version 420,2013-05-18 17:30:00,
2013-05-19 03:35:00,47.8,37.7,29.85,SW,215,1.8,3.1,68,0.00,,,0.00,WSDL version 420,2013-05-18 17:35:00,
2013-05-19 03:40:00,48.0,38.0,29.85,WSW,256,2.8,5.4,68,0.00,,,0.00,WSDL version 420,2013-05-18 17:40:00,
2013-05-19 03:45:00,48.1,38.0,29.85,West,262,2.5,5.4,68,0.00,,,0.00,WSDL version 420,2013-05-18 17:45:00,
2013-05-19 03:50:00,48.0,38.0,29.85,West,266,1.7,4.7,68,0.00,,,0.00,WSDL version 420,2013-05-18 17:50:00,
2013-05-19 03:55:00,48.2,38.1,29.85,SW,219,2.6,4.9,68,0.00,,,0.00,WSDL version 420,2013-05-18 17:55:00,
2013-05-19 04:00:00,48.2,37.9,29.83,West,281,3.0,5.8,67,0.00,,,0.00,WSDL version 420,2013-05-18 18:00:00,
2013-05-19 04:05:00,47.9,37.6,29.83,WSW,253,1.3,5.8,67,0.00,,,0.00,WSDL version 420,2013-05-18 18:05:00,
2013-05-19 04:10:00,-999.0,-99.9,29.83,WSW,251,1.4,6.3,-999,0.00,,,0.00,WSDL version 420,2013-05-18 18:10:00,
2013-05-19 04:15:00,47.6,37.5,29.83,SW,231,1.5,6.3,68,0.00,,,0.00,WSDL version 420,2013-05-18 18:15:00,
2013-05-19 04:20:00,47.5,37.5,29.85,WSW,251,2.5,4.0,68,0.00,,,0.00,WSDL version 420,2013-05-18 18:20:00,
2013-05-19 04:25:00,47.5,37.7,29.85,WNW,286,2.4,5.8,69,0.00,,,0.00,WSDL version 420,2013-05-18 18:25:00,
2013-05-19 04:30:00,47.4,37.7,29.85,SW,222,1.8,5.8,69,0.00,,,0.00,WSDL version 420,2013-05-18 18:30:00,
2013-05-19 04:35:00,47.3,37.7,29.85,SSW,210,2.0,5.4,69,0.00,,,0.00,WSDL version 420,2013-05-18 18:35:00,
2013-05-19 04:40:00,47.3,37.8,29.85,WSW,248,2.3,5.4,69,0.00,,,0.00,WSDL version 420,2013-05-18 18:40:00,
2013-05-19 04:45:00,47.2,37.8,29.85,SW,229,1.2,3.6,70,0.00,,,0.00,WSDL version 420,2013-05-18 18:45:00,
2013-05-19 04:50:00,47.0,37.3,29.85,NNW,344,1.1,3.8,69,0.00,,,0.00,WSDL version 420,2013-05-18 18:50:00,
2013-05-19 04:55:00,-999.0,-99.9,29.85,SW,221,2.3,3.8,-999,0.00,,,0.00,WSDL version 420,2013-05-18 18:55:00,
2013-05-19 05:00:00,46.5,37.3,29.85,WSW,240,0.6,3.4,70,0.00,,,0.00,WSDL version 420,2013-05-18 19:00:00,
2013-05-19 05:05:00,46.3,37.2,29.85,SSW,206,0.8,3.4,71,0.00,,,0.00,WSDL version 420,2013-05-18 19:05:00,
2013-05-19 05:10:00,46.2,37.3,29.85,SSW,193,1.0,2.5,71,0.00,,,0.00,WSDL version 420,2013-05-18 19:10:00,
2013-05-19 05:15:00,46.0,37.2,29.85,WSW,240,0.0,2.5,71,0.00,,,0.00,WSDL version 420,2013-05-18 19:15:00,
2013-05-19 05:20:00,45.9,37.1,29.85,South,191,1.2,2.2,72,0.00,,,0.00,WSDL version 420,2013-05-18 19:20:00,
2013-05-19 05:25:00,45.9,37.4,29.85,South,177,1.4,2.2,72,0.00,,,0.00,WSDL version 420,2013-05-18 19:25:00,
2013-05-19 05:30:00,45.9,37.5,29.88,South,188,1.2,2.7,73,0.00,,,0.00,WSDL version 420,2013-05-18 19:30:00,
2013-05-19 05:35:00,45.7,37.5,29.88,SE,145,0.6,2.7,73,0.00,,,0.00,WSDL version 420,2013-05-18 19:35:00,
2013-05-19 05:40:00,45.5,37.4,29.88,South,188,1.0,2.9,73,0.00,,,0.00,WSDL version 420,2013-05-18 19:40:00,
2013-05-19 05:45:00,45.5,37.7,29.85,SSW,206,0.2,2.9,74,0.00,,,0.00,WSDL version 420,2013-05-18 19:45:00,
2013-05-19 05:50:00,45.4,37.6,29.85,SSE,149,1.0,2.2,74,0.00,,,0.00,WSDL version 420,2013-05-18 19:50:00,
2013-05-19 05:55:00,45.4,37.6,29.85,South,169,0.0,2.2,74,0.00,,,0.00,WSDL version 420,2013-05-18 19:55:00,
2013-05-19 06:05:00,45.4,37.9,29.85,SSE,152,1.1,3.6,75,0.00,,,0.00,WSDL version 420,2013-05-18 20:05:00,
2013-05-19 06:10:00,45.3,37.9,29.85,SSE,148,1.2,2.7,75,0.00,,,0.00,WSDL version 420,2013-05-18 20:10:00,
2013-05-19 06:15:00,45.2,37.7,29.83,SE,145,0.8,2.5,75,0.00,,,0.00,WSDL version 420,2013-05-18 20:15:00,
2013-05-19 06:20:00,45.0,37.5,29.83,SSW,196,0.0,2.5,75,-99.99,,,-99.99,WSDL version 420,2013-05-18 20:20:00,
2013-05-19 06:25:00,44.7,37.3,29.83,SSE,164,0.6,2.0,75,0.00,,,0.00,WSDL version 420,2013-05-18 20:25:00,
2013-05-19 06:30:00,44.6,37.2,29.85,South,180,0.9,2.0,75,0.00,,,0.00,WSDL version 420,2013-05-18 20:30:00,
2013-05-19 06:35:00,44.6,37.5,29.85,SSE,152,0.0,2.7,76,0.00,,,0.00,WSDL version 420,2013-05-18 20:35:00,
2013-05-19 06:40:00,44.4,37.6,29.85,SE,139,1.0,2.7,77,0.00,,,0.00,WSDL version 420,2013-05-18 20:40:00,
2013-05-19 06:45:00,44.4,37.7,29.85,SSE,161,0.2,2.2,77,0.00,,,0.00,WSDL version 420,2013-05-18 20:45:00,
2013-05-19 06:50:00,44.4,37.9,29.85,SSE,155,0.6,2.5,78,0.00,,,0.00,WSDL version 420,2013-05-18 20:50:00,
2013-05-19 06:55:00,44.6,38.2,29.85,SE,146,0.6,2.5,78,0.00,,,0.00,WSDL version 420,2013-05-18 20:55:00,
2013-05-19 07:00:00,44.5,38.2,29.85,South,180,0.0,2.2,79,0.00,,,0.00,WSDL version 420,2013-05-18 21:00:00,
2013-05-19 07:05:00,44.6,38.1,29.85,SE,143,0.3,2.2,78,0.00,,,0.00,WSDL version 420,2013-05-18 21:05:00,
2013-05-19 07:10:00,44.6,38.5,29.85,North,360,0.6,2.2,79,0.00,,,0.00,WSDL version 420,2013-05-18 21:10:00,
2013-05-19 07:15:00,45.8,40.0,29.85,SSE,167,0.0,2.0,80,0.00,,,0.00,WSDL version 420,2013-05-18 21:15:00,
2013-05-19 07:20:00,46.5,40.7,29.85,SSE,151,0.5,2.0,80,0.00,,,0.00,WSDL version 420,2013-05-18 21:20:00,
2013-05-19 07:25:00,46.6,40.6,29.85,WSW,254,0.5,2.0,79,0.00,,,0.00,WSDL version 420,2013-05-18 21:25:00,
2013-05-19 07:30:00,47.9,42.0,29.85,SW,219,0.9,3.4,80,0.00,,,0.00,WSDL version 420,2013-05-18 21:30:00,
2013-05-19 07:35:00,49.6,43.5,29.85,South,177,0.8,3.4,79,0.00,,,0.00,WSDL version 420,2013-05-18 21:35:00,
2013-05-19 07:40:00,51.4,44.4,29.85,SSW,212,0.7,2.2,76,0.00,,,0.00,WSDL version 420,2013-05-18 21:40:00,
2013-05-19 07:45:00,50.4,42.3,29.85,West,276,2.0,3.1,73,0.00,,,0.00,WSDL version 420,2013-05-18 21:45:00,
2013-05-19 07:50:00,49.9,41.6,29.88,SW,219,2.1,4.3,73,0.00,,,0.00,WSDL version 420,2013-05-18 21:50:00,
2013-05-19 07:55:00,51.0,42.4,29.88,West,276,1.2,4.3,72,0.00,,,0.00,WSDL version 420,2013-05-18 21:55:00,
2013-05-19 08:00:00,53.1,43.7,29.91,WSW,238,1.7,3.4,69,0.00,,,0.00,WSDL version 420,2013-05-18 22:00:00,
2013-05-19 08:05:00,54.0,43.4,29.91,West,276,2.3,4.7,66,0.00,,,0.00,WSDL version 420,2013-05-18 22:05:00,
2013-05-19 08:10:00,54.6,43.0,29.91,West,279,2.0,4.7,63,0.00,,,0.00,WSDL version 420,2013-05-18 22:10:00,
2013-05-19 08:15:00,55.0,42.6,29.91,NW,325,1.9,4.3,62,0.00,,,0.00,WSDL version 420,2013-05-18 22:15:00,
2013-05-19 08:20:00,55.5,42.3,29.94,West,275,1.7,3.8,60,0.00,,,0.00,WSDL version 420,2013-05-18 22:20:00,
2013-05-19 08:25:00,55.9,42.1,29.94,West,270,2.5,3.6,59,0.00,,,0.00,WSDL version 420,2013-05-18 22:25:00,
2013-05-19 08:30:00,56.1,41.5,29.88,West,274,2.5,4.3,57,0.00,,,0.00,WSDL version 420,2013-05-18 22:30:00,
2013-05-19 08:35:00,56.4,41.2,29.88,West,270,3.1,4.3,56,0.00,,,0.00,WSDL version 420,2013-05-18 22:35:00,
2013-05-19 08:40:00,57.0,41.3,29.88,West,263,2.8,4.3,54,0.00,,,0.00,WSDL version 420,2013-05-18 22:40:00,
2013-05-19 08:45:00,57.3,40.2,29.91,West,276,3.0,4.9,52,0.00,,,0.00,WSDL version 420,2013-05-18 22:45:00,
2013-05-19 08:50:00,57.7,40.1,29.91,West,274,3.2,5.4,51,0.00,,,0.00,WSDL version 420,2013-05-18 22:50:00,
2013-05-19 08:55:00,58.4,40.1,29.91,WNW,299,4.0,5.6,49,0.00,,,0.00,WSDL version 420,2013-05-18 22:55:00,
2013-05-19 09:00:00,58.8,39.0,29.94,West,270,4.3,7.6,47,0.00,,,0.00,WSDL version 420,2013-05-18 23:00:00,
2013-05-19 09:05:00,59.1,39.1,29.94,WNW,289,3.7,7.6,47,0.00,,,0.00,WSDL version 420,2013-05-18 23:05:00,
2013-05-19 09:10:00,60.0,39.5,29.94,WNW,284,2.7,6.5,46,0.00,,,0.00,WSDL version 420,2013-05-18 23:10:00,
2013-05-19 09:15:00,60.4,38.7,29.94,WSW,253,5.2,6.5,44,0.00,,,0.00,WSDL version 420,2013-05-18 23:15:00,
2013-05-19 09:20:00,60.4,38.0,29.94,West,262,5.5,8.5,42,0.00,,,0.00,WSDL version 420,2013-05-18 23:20:00,
2013-05-19 09:25:00,60.4,37.3,29.94,West,261,3.9,9.6,42,0.00,,,0.00,WSDL version 420,2013-05-18 23:25:00,
2013-05-19 09:30:00,61.2,38.4,29.94,NW,318,3.3,9.6,43,0.00,,,0.00,WSDL version 420,2013-05-18 23:30:00,
2013-05-19 09:35:00,61.7,37.4,29.94,West,276,3.5,6.5,41,0.00,,,0.00,WSDL version 420,2013-05-18 23:35:00,
2013-05-19 09:40:00,62.1,37.5,29.94,West,280,4.4,7.2,40,0.00,,,0.00,WSDL version 420,2013-05-18 23:40:00,
2013-05-19 09:45:00,62.1,37.1,29.94,NNW,344,4.2,7.2,40,0.00,,,0.00,WSDL version 420,2013-05-18 23:45:00,
2013-05-19 09:50:00,63.1,38.2,29.91,WNW,284,4.1,7.2,39,0.00,,,0.00,WSDL version 420,2013-05-18 23:50:00,
2013-05-19 09:55:00,63.1,36.9,29.91,WNW,296,4.7,8.7,38,0.00,,,0.00,WSDL version 420,2013-05-18 23:55:00,
2013-05-19 10:00:00,63.1,36.9,29.91,West,281,5.7,8.7,37,0.00,,,0.00,WSDL version 420,2013-05-19 00:00:00,
2013-05-19 10:05:00,63.2,36.8,29.91,West,281,5.5,10.5,38,0.00,,,0.00,WSDL version 420,2013-05-19 00:05:00,
2013-05-19 10:10:00,63.6,37.5,29.91,West,270,3.2,10.5,38,-99.99,,,-99.99,WSDL version 420,2013-05-19 00:10:00,
2013-05-19 10:15:00,63.6,36.8,29.91,West,259,4.6,8.5,37,0.00,,,0.00,WSDL version 420,2013-05-19 00:15:00,
2013-05-19 10:20:00,63.7,37.0,29.91,WNW,293,4.6,8.5,37,0.00,,,0.00,WSDL version 420,2013-05-19 00:20:00,
2013-05-19 10:25:00,64.2,37.9,29.91,West,264,2.8,6.5,37,0.00,,,0.00,WSDL version 420,2013-05-19 00:25:00,
2013-05-19 10:30:00,64.2,36.7,29.91,West,270,5.1,8.7,36,0.00,,,0.00,WSDL version 420,2013-05-19 00:30:00,
2013-05-19 10:35:00,64.2,36.7,29.91,WNW,295,6.1,8.7,36,0.00,,,0.00,WSDL version 420,2013-05-19 00:35:00,
2013-05-19 10:40:00,64.5,36.9,29.91,West,260,5.6,10.1,36,0.00,,,0.00,WSDL version 420,2013-05-19 00:40:00,
2013-05-19 10:45:00,64.4,36.9,29.91,West,275,5.2,10.3,36,0.00,,,0.00,WSDL version 420,2013-05-19 00:45:00,
2013-05-19 10:50:00,65.2,36.9,29.91,West,278,4.3,10.3,35,0.00,,,0.00,WSDL version 420,2013-05-19 00:50:00,
2013-05-19 10:55:00,65.4,37.1,29.91,WNW,290,4.1,7.6,35,0.00,,,0.00,WSDL version 420,2013-05-19 00:55:00,
2013-05-19 11:00:00,65.8,37.5,29.91,West,260,4.3,7.8,35,0.00,,,0.00,WSDL version 420,2013-05-19 01:00:00,
2013-05-19 11:05:00,66.0,37.6,29.91,WNW,299,4.2,8.5,35,0.00,,,0.00,WSDL version 420,2013-05-19 01:05:00,
2013-05-19 11:10:00,66.9,38.0,29.91,NW,308,3.9,10.3,34,0.00,,,0.00,WSDL version 420,2013-05-19 01:10:00,
2013-05-19 11:15:00,66.7,37.4,29.91,West,273,3.9,10.3,34,0.00,,,0.00,WSDL version 420,2013-05-19 01:15:00,
2013-05-19 11:20:00,66.8,37.6,29.91,WNW,296,4.3,8.5,34,0.00,,,0.00,WSDL version 420,2013-05-19 01:20:00,
2013-05-19 11:25:00,66.7,37.5,29.91,West,273,4.9,8.5,34,0.00,,,0.00,WSDL version 420,2013-05-19 01:25:00,
2013-05-19 11:30:00,66.7,36.8,29.91,West,262,4.3,9.6,33,0.00,,,0.00,WSDL version 420,2013-05-19 01:30:00,
2013-05-19 11:35:00,66.7,36.7,29.91,WNW,287,4.7,9.6,33,0.00,,,0.00,WSDL version 420,2013-05-19 01:35:00,
2013-05-19 11:40:00,66.6,36.6,29.91,NW,315,3.6,8.5,33,0.00,,,0.00,WSDL version 420,2013-05-19 01:40:00,
2013-05-19 11:45:00,67.0,37.2,29.91,West,276,3.8,7.8,34,0.00,,,0.00,WSDL version 420,2013-05-19 01:45:00,
2013-05-19 11:50:00,67.2,37.5,29.91,West,259,5.9,10.1,33,0.00,,,0.00,WSDL version 420,2013-05-19 01:50:00,
2013-05-19 11:55:00,67.0,37.0,29.91,NW,315,2.9,10.1,33,0.00,,,0.00,WSDL version 420,2013-05-19 01:55:00,
2013-05-19 12:00:00,67.4,37.3,29.91,West,270,5.4,9.6,33,0.00,,,0.00,WSDL version 420,2013-05-19 02:00:00,
2013-05-19 12:05:00,66.9,36.9,29.91,WNW,289,5.5,8.5,33,0.00,,,0.00,WSDL version 420,2013-05-19 02:05:00,
2013-05-19 12:10:00,67.0,37.0,29.91,WNW,289,5.0,8.5,33,0.00,,,0.00,WSDL version 420,2013-05-19 02:10:00,
2013-05-19 12:15:00,67.2,37.2,29.91,North,357,3.7,8.9,33,0.00,,,0.00,WSDL version 420,2013-05-19 02:15:00,
2013-05-19 12:20:00,67.6,37.5,29.91,West,270,5.4,9.4,33,0.00,,,0.00,WSDL version 420,2013-05-19 02:20:00,
2013-05-19 12:25:00,67.8,37.7,29.91,West,281,4.5,9.4,33,0.00,,,0.00,WSDL version 420,2013-05-19 02:25:00,
2013-05-19 12:30:00,-999.0,-99.9,29.88,WNW,296,4.1,8.7,-999,0.00,,,0.00,WSDL version 420,2013-05-19 02:30:00,
2013-05-19 12:35:00,68.4,38.2,29.88,West,276,3.4,8.7,33,0.00,,,0.00,WSDL version 420,2013-05-19 02:35:00,
2013-05-19 12:40:00,67.7,37.4,29.88,WNW,296,7.1,10.7,33,0.00,,,0.00,WSDL version 420,2013-05-19 02:40:00,
2013-05-19 12:45:00,67.9,37.5,29.85,WSW,253,6.4,10.7,33,0.00,,,0.00,WSDL version 420,2013-05-19 02:45:00,
2013-05-19 12:50:00,67.8,37.6,29.85,West,276,5.5,10.3,33,0.00,,,0.00,WSDL version 420,2013-05-19 02:50:00,
2013-05-19 12:55:00,67.8,37.5,29.85,West,276,6.1,10.5,33,0.00,,,0.00,WSDL version 420,2013-05-19 02:55:00,
2013-05-19 13:00:00,67.3,37.3,29.85,West,281,6.3,10.5,33,0.00,,,0.00,WSDL version 420,2013-05-19 03:00:00,
2013-05-19 13:05:00,67.5,37.4,29.85,WNW,284,5.8,11.9,33,0.00,,,0.00,WSDL version 420,2013-05-19 03:05:00,
2013-05-19 13:10:00,67.6,37.5,29.85,WNW,289,6.3,11.9,33,0.00,,,0.00,WSDL version 420,2013-05-19 03:10:00,
2013-05-19 13:15:00,67.9,37.3,29.85,WNW,290,4.5,10.1,32,0.00,,,0.00,WSDL version 420,2013-05-19 03:15:00,
2013-05-19 13:20:00,68.6,37.8,29.85,NNW,332,6.3,12.5,32,0.00,,,0.00,WSDL version 420,2013-05-19 03:20:00,
2013-05-19 13:25:00,68.7,37.7,29.85,West,274,5.5,12.5,32,-99.99,,,-99.99,WSDL version 420,2013-05-19 03:25:00,
2013-05-19 13:30:00,68.7,37.7,29.85,WNW,284,3.4,12.1,32,0.00,,,0.00,WSDL version 420,2013-05-19 03:30:00,
2013-05-19 13:35:00,69.1,38.1,29.85,WNW,302,3.6,9.6,32,0.00,,,0.00,WSDL version 420,2013-05-19 03:35:00,
2013-05-19 13:40:00,69.6,38.5,29.85,West,281,3.2,5.8,32,0.00,,,0.00,WSDL version 420,2013-05-19 03:40:00,
2013-05-19 13:45:00,70.3,39.0,29.85,WNW,286,3.8,6.3,32,0.00,,,0.00,WSDL version 420,2013-05-19 03:45:00,
2013-05-19 13:50:00,70.3,39.0,29.85,WNW,293,4.6,10.7,32,0.00,,,0.00,WSDL version 420,2013-05-19 03:50:00,
2013-05-19 13:55:00,70.0,38.8,29.85,WNW,289,4.0,10.7,32,0.00,,,0.00,WSDL version 420,2013-05-19 03:55:00,
2013-05-19 14:00:00,69.8,38.4,29.85,WNW,299,5.1,10.3,31,-99.99,,,-99.99,WSDL version 420,2013-05-19 04:00:00,
2013-05-19 14:05:00,69.4,37.6,29.85,WNW,283,5.1,10.3,32,0.00,,,0.00,WSDL version 420,2013-05-19 04:05:00,
2013-05-19 14:10:00,69.7,38.2,29.85,WNW,298,4.8,8.7,31,0.00,,,0.00,WSDL version 420,2013-05-19 04:10:00,
2013-05-19 14:15:00,69.8,38.1,29.85,WNW,302,3.0,8.1,32,0.00,,,0.00,WSDL version 420,2013-05-19 04:15:00,
2013-05-19 14:20:00,70.3,38.5,29.85,WSW,257,4.3,8.1,31,0.00,,,0.00,WSDL version 420,2013-05-19 04:20:00,
2013-05-19 14:25:00,70.2,38.2,29.85,West,273,3.7,8.1,31,0.00,,,0.00,WSDL version 420,2013-05-19 04:25:00,
2013-05-19 14:30:00,70.2,38.1,29.83,West,273,3.7,7.4,31,0.00,,,0.00,WSDL version 420,2013-05-19 04:30:00,
2013-05-19 14:35:00,70.5,38.4,29.83,NW,304,3.5,6.0,31,0.00,,,0.00,WSDL version 420,2013-05-19 04:35:00,
2013-05-19 14:40:00,70.3,37.7,29.83,NW,307,4.3,7.8,30,0.00,,,0.00,WSDL version 420,2013-05-19 04:40:00,
2013-05-19 14:45:00,70.3,37.5,29.85,West,274,2.9,7.8,30,0.00,,,0.00,WSDL version 420,2013-05-19 04:45:00,
2013-05-19 14:50:00,70.1,37.5,29.85,West,276,4.8,9.6,30,0.00,,,0.00,WSDL version 420,2013-05-19 04:50:00,
2013-05-19 14:55:00,70.0,37.2,29.85,West,281,3.4,9.6,30,0.00,,,0.00,WSDL version 420,2013-05-19 04:55:00,
2013-05-19 15:00:00,70.3,38.3,29.83,West,276,3.9,6.5,31,0.00,,,0.00,WSDL version 420,2013-05-19 05:00:00,
2013-05-19 15:05:00,70.3,37.6,29.83,West,273,4.3,6.5,30,0.00,,,0.00,WSDL version 420,2013-05-19 05:05:00,
2013-05-19 15:10:00,70.0,37.4,29.83,WNW,293,3.4,8.9,31,-99.99,,,-99.99,WSDL version 420,2013-05-19 05:10:00,
2013-05-19 15:15:00,70.4,37.9,29.85,NW,318,4.1,8.9,30,0.00,,,0.00,WSDL version 420,2013-05-19 05:15:00,
2013-05-19 15:20:00,70.2,37.4,29.85,WNW,296,3.5,7.4,30,0.00,,,0.00,WSDL version 420,2013-05-19 05:20:00,
2013-05-19 15:25:00,69.8,37.0,29.85,West,281,3.6,5.8,30,0.00,,,0.00,WSDL version 420,2013-05-19 05:25:00,
2013-05-19 15:30:00,69.6,36.8,29.85,WNW,299,3.6,6.3,30,0.00,,,0.00,WSDL version 420,2013-05-19 05:30:00,
2013-05-19 15:35:00,69.7,37.7,29.85,NW,321,2.9,6.3,31,0.00,,,0.00,WSDL version 420,2013-05-19 05:35:00,
2013-05-19 15:40:00,69.5,36.9,29.85,WNW,293,4.4,6.5,30,0.00,,,0.00,WSDL version 420,2013-05-19 05:40:00,
2013-05-19 15:45:00,69.0,36.3,29.85,WNW,299,4.1,8.1,30,0.00,,,0.00,WSDL version 420,2013-05-19 05:45:00,
2013-05-19 15:50:00,68.9,36.6,29.85,WNW,293,2.0,8.1,31,0.00,,,0.00,WSDL version 420,2013-05-19 05:50:00,
2013-05-19 15:55:00,69.0,37.2,29.85,WSW,251,3.7,5.6,31,0.00,,,0.00,WSDL version 420,2013-05-19 05:55:00,
2013-05-19 16:00:00,68.6,36.8,29.83,NW,304,2.9,5.4,31,-99.99,,,-99.99,WSDL version 420,2013-05-19 06:00:00,
2013-05-19 16:05:00,68.3,36.5,29.83,WNW,296,2.8,6.3,31,0.00,,,0.00,WSDL version 420,2013-05-19 06:05:00,
2013-05-19 16:10:00,68.0,36.3,29.83,West,267,2.9,6.3,31,0.00,,,0.00,WSDL version 420,2013-05-19 06:10:00,
2013-05-19 16:15:00,67.8,36.6,29.83,West,273,2.5,5.6,32,0.00,,,0.00,WSDL version 420,2013-05-19 06:15:00,
2013-05-19 16:20:00,67.6,36.7,29.85,West,266,1.4,3.8,32,0.00,,,0.00,WSDL version 420,2013-05-19 06:20:00,
2013-05-19 16:25:00,67.2,36.4,29.85,NNW,334,1.5,4.0,32,0.00,,,0.00,WSDL version 420,2013-05-19 06:25:00,
2013-05-19 16:30:00,66.4,35.9,29.83,West,280,2.3,4.0,33,0.00,,,0.00,WSDL version 420,2013-05-19 06:30:00,
2013-05-19 16:35:00,65.5,35.6,29.83,WNW,289,1.4,3.8,33,0.00,,,0.00,WSDL version 420,2013-05-19 06:35:00,
2013-05-19 16:40:00,64.5,35.0,29.83,NW,305,0.3,3.6,34,-99.99,,,-99.99,WSDL version 420,2013-05-19 06:40:00,
2013-05-19 16:45:00,63.5,34.6,29.83,SW,225,0.0,2.2,34,0.00,,,0.00,WSDL version 420,2013-05-19 06:45:00,
2013-05-19 16:50:00,61.9,34.5,29.85,SSE,158,0.0,0.0,36,0.00,,,0.00,WSDL version 420,2013-05-19 06:50:00,
2013-05-19 16:55:00,60.8,34.0,29.85,SE,129,0.4,1.6,37,0.00,,,0.00,WSDL version 420,2013-05-19 06:55:00,
2013-05-19 17:00:00,59.6,33.8,29.85,SE,135,0.0,1.6,39,0.00,,,0.00,WSDL version 420,2013-05-19 07:00:00,
2013-05-19 17:10:00,57.7,34.8,29.85,ENE,68,0.0,0.0,44,0.00,,,0.00,WSDL version 420,2013-05-19 07:10:00,
2013-05-19 17:15:00,57.0,35.3,29.85,East,96,0.0,0.0,45,0.00,,,0.00,WSDL version 420,2013-05-19 07:15:00,
2013-05-19 17:20:00,56.2,35.2,29.85,ESE,116,0.0,0.9,46,0.00,,,0.00,WSDL version 420,2013-05-19 07:20:00,
2013-05-19 17:25:00,55.6,35.1,29.85,East,101,0.0,0.9,46,0.00,,,0.00,WSDL version 420,2013-05-19 07:25:00,
2013-05-19 17:30:00,55.0,35.2,29.85,ESE,113,0.0,0.0,48,0.00,,,0.00,WSDL version 420,2013-05-19 07:30:00,
2013-05-19 17:35:00,54.4,35.3,29.85,ESE,113,0.0,0.0,49,-99.99,,,-99.99,WSDL version 420,2013-05-19 07:35:00,
2013-05-19 17:40:00,53.8,35.1,29.85,SW,217,0.0,0.0,49,0.00,,,0.00,WSDL version 420,2013-05-19 07:40:00,
2013-05-19 17:45:00,53.4,35.1,29.85,SE,128,0.0,0.0,50,0.00,,,0.00,WSDL version 420,2013-05-19 07:45:00,
2013-05-19 17:50:00,52.9,35.1,29.85,SSW,199,0.0,0.0,51,0.00,,,0.00,WSDL version 420,2013-05-19 07:50:00,
2013-05-19 17:55:00,52.6,34.9,29.85,ENE,68,0.0,0.0,51,0.00,,,0.00,WSDL version 420,2013-05-19 07:55:00,
2013-05-19 18:00:00,52.4,35.1,29.85,ESE,122,0.3,2.2,52,0.00,,,0.00,WSDL version 420,2013-05-19 08:00:00,
2013-05-19 18:05:00,52.1,35.8,29.85,SE,135,0.0,2.2,54,0.00,,,0.00,WSDL version 420,2013-05-19 08:05:00,
2013-05-19 18:10:00,51.8,35.3,29.85,SE,132,0.2,2.2,53,0.00,,,0.00,WSDL version 420,2013-05-19 08:10:00,
2013-05-19 18:15:00,51.6,35.8,29.88,SE,135,1.0,2.2,55,0.00,,,0.00,WSDL version 420,2013-05-19 08:15:00,
2013-05-19 18:20:00,51.6,36.0,29.88,ESE,120,1.1,2.2,55,-99.99,,,-99.99,WSDL version 420,2013-05-19 08:20:00,
2013-05-19 18:25:00,51.6,36.2,29.88,ESE,113,0.0,2.2,56,0.00,,,0.00,WSDL version 420,2013-05-19 08:25:00,
2013-05-19 18:30:00,51.5,36.3,29.88,SE,143,0.9,2.7,56,0.00,,,0.00,WSDL version 420,2013-05-19 08:30:00,
2013-05-19 18:35:00,51.4,36.3,29.88,ESE,109,0.0,2.7,56,0.00,,,0.00,WSDL version 420,2013-05-19 08:35:00,
2013-05-19 18:40:00,-999.0,-99.9,29.88,ESE,113,0.0,1.3,-999,0.00,,,0.00,WSDL version 420,2013-05-19 08:40:00,
2013-05-19 18:45:00,51.4,36.3,29.88,SSE,148,0.5,2.0,56,0.00,,,0.00,WSDL version 420,2013-05-19 08:45:00,
2013-05-19 18:50:00,51.4,36.4,29.88,SE,135,0.9,2.9,56,0.00,,,0.00,WSDL version 420,2013-05-19 08:50:00,
2013-05-19 18:55:00,51.4,36.3,29.88,South,180,0.0,2.9,56,0.00,,,0.00,WSDL version 420,2013-05-19 08:55:00,
2013-05-19 19:00:00,51.2,36.0,29.88,SSE,154,1.1,2.2,56,0.00,,,0.00,WSDL version 420,2013-05-19 09:00:00,
2013-05-19 19:05:00,51.0,36.1,29.88,SE,138,0.6,2.2,56,0.00,,,0.00,WSDL version 420,2013-05-19 09:05:00,
2013-05-19 19:10:00,50.8,36.0,29.88,ESE,115,0.7,2.5,57,0.00,,,0.00,WSDL version 420,2013-05-19 09:10:00,
2013-05-19 19:15:00,50.7,36.1,29.88,SE,132,0.6,2.5,57,0.00,,,0.00,WSDL version 420,2013-05-19 09:15:00,
2013-05-19 19:20:00,50.7,36.1,29.88,SE,133,1.1,2.2,58,0.00,,,0.00,WSDL version 420,2013-05-19 09:20:00,
2013-05-19 19:25:00,50.6,36.4,29.88,ESE,113,1.2,2.5,58,0.00,,,0.00,WSDL version 420,2013-05-19 09:25:00,
2013-05-19 19:30:00,50.5,36.5,29.88,SE,135,1.1,3.1,58,0.00,,,0.00,WSDL version 420,2013-05-19 09:30:00,
2013-05-19 19:35:00,50.5,36.3,29.88,SSE,152,0.7,3.1,58,0.00,,,0.00,WSDL version 420,2013-05-19 09:35:00,
2013-05-19 19:40:00,50.2,36.0,29.88,South,183,0.6,2.2,58,0.00,,,0.00,WSDL version 420,2013-05-19 09:40:00,
2013-05-19 19:45:00,50.5,36.2,29.88,SSE,158,0.4,2.2,58,0.00,,,0.00,WSDL version 420,2013-05-19 09:45:00,
2013-05-19 19:50:00,50.4,36.2,29.91,SSE,166,0.8,2.5,58,0.00,,,0.00,WSDL version 420,2013-05-19 09:50:00,
2013-05-19 19:55:00,50.5,36.3,29.91,SSE,149,0.4,2.5,58,0.00,,,0.00,WSDL version 420,2013-05-19 09:55:00,
2013-05-19 20:00:00,50.5,36.2,29.91,ESE,113,1.1,2.2,58,0.00,,,0.00,WSDL version 420,2013-05-19 10:00:00,
2013-05-19 20:05:00,50.3,36.1,29.91,South,174,1.2,2.2,58,0.00,,,0.00,WSDL version 420,2013-05-19 10:05:00,
2013-05-19 20:10:00,50.2,36.1,29.91,ESE,109,0.6,2.2,59,0.00,,,0.00,WSDL version 420,2013-05-19 10:10:00,
2013-05-19 20:15:00,50.1,36.1,29.91,SSE,154,1.0,2.7,59,0.00,,,0.00,WSDL version 420,2013-05-19 10:15:00,
2013-05-19 20:20:00,49.9,36.3,29.91,SW,219,0.9,2.9,60,0.00,,,0.00,WSDL version 420,2013-05-19 10:20:00,
2013-05-19 20:25:00,49.8,36.5,29.91,South,177,0.0,2.9,60,0.00,,,0.00,WSDL version 420,2013-05-19 10:25:00,
2013-05-19 20:30:00,49.9,36.4,29.91,SSE,158,1.2,2.5,60,0.00,,,0.00,WSDL version 420,2013-05-19 10:30:00,
2013-05-19 20:35:00,49.8,36.5,29.91,SE,132,1.0,2.2,60,-99.99,,,-99.99,WSDL version 420,2013-05-19 10:35:00,
2013-05-19 20:40:00,49.7,36.2,29.91,SE,129,0.6,2.2,59,0.00,,,0.00,WSDL version 420,2013-05-19 10:40:00,
2013-05-19 20:45:00,49.5,35.9,29.91,South,171,1.3,2.0,60,0.00,,,0.00,WSDL version 420,2013-05-19 10:45:00,
2013-05-19 20:50:00,49.6,36.3,29.91,South,183,0.9,2.7,60,0.00,,,0.00,WSDL version 420,2013-05-19 10:50:00,
2013-05-19 20:55:00,49.5,36.2,29.91,SSE,150,1.0,2.7,60,-99.99,,,-99.99,WSDL version 420,2013-05-19 10:55:00,
2013-05-19 21:00:00,49.4,36.1,29.91,South,180,1.5,2.9,60,0.00,,,0.00,WSDL version 420,2013-05-19 11:00:00,
2013-05-19 21:05:00,49.4,36.1,29.91,South,174,0.0,2.9,60,0.00,,,0.00,WSDL version 420,2013-05-19 11:05:00,
2013-05-19 21:10:00,49.3,36.0,29.91,South,180,0.1,2.5,60,0.00,,,0.00,WSDL version 420,2013-05-19 11:10:00,
2013-05-19 21:15:00,49.3,36.0,29.91,SE,140,0.5,2.5,60,-99.99,,,-99.99,WSDL version 420,2013-05-19 11:15:00,
2013-05-19 21:20:00,49.1,35.8,29.91,South,174,0.0,2.5,60,0.00,,,0.00,WSDL version 420,2013-05-19 11:20:00,
2013-05-19 21:25:00,49.1,35.8,29.91,SSW,194,0.1,2.2,60,0.00,,,0.00,WSDL version 420,2013-05-19 11:25:00,
2013-05-19 21:30:00,48.9,35.7,29.91,SSE,154,0.0,2.2,60,0.00,,,0.00,WSDL version 420,2013-05-19 11:30:00,
2013-05-19 21:35:00,48.7,35.5,29.91,SSE,166,0.0,2.0,60,0.00,,,0.00,WSDL version 420,2013-05-19 11:35:00,
2013-05-19 21:40:00,48.6,35.4,29.91,SE,135,0.7,1.6,60,-99.99,,,-99.99,WSDL version 420,2013-05-19 11:40:00,
2013-05-19 21:45:00,48.4,35.3,29.91,SE,144,1.3,2.2,61,0.00,,,0.00,WSDL version 420,2013-05-19 11:45:00,
2013-05-19 21:50:00,48.3,35.5,29.91,SE,141,0.0,2.2,61,0.00,,,0.00,WSDL version 420,2013-05-19 11:50:00,
2013-05-19 21:55:00,48.2,35.4,29.91,SSW,206,0.1,1.6,61,0.00,,,0.00,WSDL version 420,2013-05-19 11:55:00,
2013-05-19 22:00:00,48.1,35.5,29.91,SSE,158,0.0,1.6,62,0.00,,,0.00,WSDL version 420,2013-05-19 12:00:00,
2013-05-19 22:05:00,47.8,35.4,29.91,SW,225,0.0,1.6,62,0.00,,,0.00,WSDL version 420,2013-05-19 12:05:00,
2013-05-19 22:10:00,47.6,35.3,29.91,SSE,158,0.4,1.6,62,0.00,,,0.00,WSDL version 420,2013-05-19 12:10:00,
2013-05-19 22:15:00,47.7,35.6,29.91,SSE,150,1.3,2.0,63,0.00,,,0.00,WSDL version 420,2013-05-19 12:15:00,
2013-05-19 22:20:00,48.1,36.7,29.91,SSE,167,0.6,3.6,64,0.00,,,0.00,WSDL version 420,2013-05-19 12:20:00,
2013-05-19 22:25:00,48.2,36.6,29.91,South,180,0.0,3.6,64,-99.99,,,-99.99,WSDL version 420,2013-05-19 12:25:00,
2013-05-19 22:30:00,48.2,36.5,29.91,SE,146,1.2,3.1,64,0.00,,,0.00,WSDL version 420,2013-05-19 12:30:00,
2013-05-19 22:35:00,48.2,36.6,29.91,South,169,1.3,3.1,64,0.00,,,0.00,WSDL version 420,2013-05-19 12:35:00,
2013-05-19 22:40:00,48.4,36.5,29.91,SE,132,0.0,2.5,63,0.00,,,0.00,WSDL version 420,2013-05-19 12:40:00,
2013-05-19 22:45:00,48.4,36.4,29.91,South,169,1.0,2.5,63,0.00,,,0.00,WSDL version 420,2013-05-19 12:45:00,
2013-05-19 22:50:00,48.4,36.4,29.91,SSE,149,0.3,2.5,63,0.00,,,0.00,WSDL version 420,2013-05-19 12:50:00,
2013-05-19 22:55:00,48.3,36.1,29.91,SSE,158,0.4,2.0,62,0.00,,,0.00,WSDL version 420,2013-05-19 12:55:00,
2013-05-19 23:00:00,48.1,35.9,29.91,SSE,158,0.3,2.5,63,0.00,,,0.00,WSDL version 420,2013-05-19 13:00:00,
2013-05-19 23:05:00,48.2,36.3,29.91,South,176,1.4,2.9,64,0.00,,,0.00,WSDL version 420,2013-05-19 13:05:00,
2013-05-19 23:10:00,48.2,36.2,29.91,SW,217,0.0,2.9,63,0.00,,,0.00,WSDL version 420,2013-05-19 13:10:00,
2013-05-19 23:15:00,47.8,35.9,29.91,SSE,168,0.6,2.7,63,0.00,,,0.00,WSDL version 420,2013-05-19 13:15:00,
2013-05-19 23:20:00,48.0,36.2,29.91,South,180,1.4,2.7,64,-99.99,,,-99.99,WSDL version 420,2013-05-19 13:20:00,
2013-05-19 23:25:00,48.2,36.2,29.91,South,188,0.6,2.7,63,0.00,,,0.00,WSDL version 420,2013-05-19 13:25:00,
2013-05-19 23:30:00,48.2,36.2,29.91,SSW,193,1.1,2.7,63,0.00,,,0.00,WSDL version 420,2013-05-19 13:30:00,
2013-05-19 23:35:00,48.2,36.2,29.91,South,184,1.5,2.5,63,0.00,,,0.00,WSDL version 420,2013-05-19 13:35:00,
2013-05-19 23:40:00,48.2,36.2,29.91,South,174,0.7,2.5,63,0.00,,,0.00,WSDL version 420,2013-05-19 13:40:00,
2013-05-19 23:45:00,48.4,36.4,29.91,South,172,0.6,2.5,63,0.00,,,0.00,WSDL version 420,2013-05-19 13:45:00,
2013-05-19 23:50:00,48.2,35.9,29.91,South,185,0.0,1.6,62,-99.99,,,-99.99,WSDL version 420,2013-05-19 13:50:00,
2013-05-19 23:55:00,48.0,36.0,29.91,West,281,0.6,1.6,63,0.00,,,0.00,WSDL version 420,2013-05-19 13:55:00,